Latest Weather Observations for Moorabbin Airport

IDV60801

Issued at 9:32 am EDT Friday 31 March 2017 (issued every 30 minutes, with the page automatically refreshed every 10 minutes)

About weather observations | Map of weather stations | Latest weather observations for VIC | Other Formats
Station Details ID: 086077 Name: MOORABBIN AIRPORT Lat: -37.98 Lon: 145.10 Height: 12.1 m
Data from the previous 72 hours. | See also: Recent months at Moorabbin Airport
Date/Time
EDT
Temp
°C
App
Temp
°C
Dew
Point
°C
Rel
Hum
%
Delta-T
°C
Wind Press
QNH
hPa
Press
MSL
hPa
Rain since
9am
mm
Dir  Spd
km/h
Gust
km/h
Spd
kts
Gust
kts
31/09:30am 13.2 11.7 10.6 84 1.3 NNW 9 13 5 7 1022.4 1022.4 0.0
31/09:00am 11.8 10.3 10.5 92 0.7 NW 9 13 5 7 1022.2 1022.2 0.6
31/08:30am 9.8 7.8 8.7 93 0.5 N 9 11 5 6 1021.9 1021.9 0.6
31/08:00am 9.0 7.2 7.9 93 0.5 N 7 9 4 5 1021.6 1021.6 0.6
31/07:30am 8.8 6.9 7.7 93 0.5 NNW 7 11 4 6 1021.3 1021.3 0.6
31/07:00am 9.1 6.9 8.0 93 0.5 N 9 11 5 6 1020.9 1020.9 0.6
31/06:30am 9.2 7.0 8.0 92 0.6 NNW 9 11 5 6 1020.4 1020.4 0.6
31/06:00am 9.4 7.3 8.2 92 0.6 NNW 9 13 5 7 1020.2 1020.2 0.6
31/05:30am 9.1 8.1 7.4 89 0.8 NNE 2 7 1 4 1020.0 1020.0 0.6
31/05:00am 9.7 8.1 7.8 88 0.9 N 6 7 3 4 1019.9 1019.9 0.6
31/04:30am 9.5 7.1 6.9 84 1.2 N 9 9 5 5 1019.8 1019.8 0.6
31/04:00am 9.8 7.9 6.7 81 1.4 ESE 6 9 3 5 1019.9 1019.9 0.6
31/03:30am 10.6 8.9 7.7 82 1.4 NNE 6 7 3 4 1020.3 1020.3 0.6
31/03:00am 10.9 9.7 8.1 83 1.4 E 4 7 2 4 1020.6 1020.6 0.6
31/02:30am 10.8 9.0 7.9 82 1.4 NE 7 9 4 5 1020.7 1020.7 0.6
31/02:00am 11.6 10.0 8.6 82 1.5 NE 7 11 4 6 1020.9 1020.9 0.6
31/01:30am 11.8 10.3 8.3 79 1.7 E 6 9 3 5 1021.0 1021.0 0.6
31/01:00am 11.9 10.2 8.4 79 1.7 ESE 7 9 4 5 1021.1 1021.1 0.6
31/12:30am 12.1 10.5 8.9 81 1.6 SSE 7 13 4 7 1021.4 1021.4 0.6
31/12:00am 11.1 9.3 8.1 82 1.5 SE 7 7 4 4 1021.7 1021.7 0.6
 
Date/Time
EDT
Temp
°C
App
Temp
°C
Dew
Point
°C
Rel
Hum
%
Delta-T
°C
Wind Press
QNH
hPa
Press
MSL
hPa
Rain since
9am
mm
Dir  Spd
km/h
Gust
km/h
Spd
kts
Gust
kts
30/11:30pm 10.2 7.5 7.3 82 1.4 ESE 11 13 6 7 1021.8 1021.8 0.6
30/11:00pm 11.5 10.0 8.4 81 1.5 ESE 6 11 3 6 1021.9 1021.9 0.6
30/10:30pm 12.3 10.7 8.6 78 1.8 N 7 11 4 6 1022.1 1022.1 0.6
30/10:00pm 12.6 10.5 8.1 74 2.2 WSW 9 15 5 8 1022.2 1022.2 0.4
30/09:30pm 12.8 10.0 6.8 67 2.9 SE 11 13 6 7 1021.7 1021.7 0.0
30/09:00pm 13.5 9.2 6.8 64 3.2 SSE 19 24 10 13 1021.7 1021.7 0.0
30/08:30pm 14.8 9.9 6.9 59 3.9 SSW 22 32 12 17 1021.3 1021.3 0.0
30/08:00pm 14.7 9.7 6.5 58 4.0 SSW 22 35 12 19 1020.8 1020.8 0.0
30/07:30pm 14.5 9.2 6.8 60 3.7 SSW 24 33 13 18 1020.4 1020.4 0.0
30/07:00pm 14.7 8.8 7.3 61 3.6 SSW 28 35 15 19 1020.1 1020.1 0.0
30/06:30pm 15.3 10.3 6.3 55 4.4 SSW 22 35 12 19 1019.7 1019.7 0.0
30/06:00pm 15.5 10.1 7.8 60 3.8 SSW 26 39 14 21 1019.3 1019.3 0.0
30/05:30pm 16.3 11.5 7.3 55 4.5 SSW 22 39 12 21 1018.8 1018.8 0.0
30/05:00pm 16.9 10.8 8.3 57 4.4 SSW 30 41 16 22 1018.5 1018.5 0.0
30/04:30pm 16.2 10.5 6.6 53 4.7 SSW 26 41 14 22 1018.3 1018.3 0.0
30/04:00pm 15.8 11.3 8.5 62 3.7 SW 22 32 12 17 1018.1 1018.1 0.0
30/03:30pm 17.6 12.1 7.6 52 5.0 SSW 26 39 14 21 1017.7 1017.7 0.0
30/03:00pm 16.4 11.0 7.9 57 4.3 SW 26 39 14 21 1017.6 1017.6 0.0
30/02:30pm 17.2 10.3 6.4 49 5.3 SW 32 44 17 24 1017.5 1017.5 0.0
30/02:00pm 17.5 11.6 5.8 46 5.7 SW 26 41 14 22 1017.5 1017.5 0.0
30/01:55pm 17.5 11.4 6.7 49 5.4 SW 28 41 15 22 1017.5 1017.5 0.0
30/01:30pm 15.5 11.5 9.2 66 3.2 S 20 30 11 16 1017.5 1017.5 0.0
30/01:07pm 15.5 9.9 7.3 58 4.1 SSW 26 44 14 24 1017.7 1017.7 0.0
30/01:00pm 16.3 13.1 9.9 66 3.3 S 17 24 9 13 1017.6 1017.6 0.0
30/12:30pm 16.0 11.2 9.0 63 3.6 SW 24 37 13 20 1017.7 1017.7 0.0
30/12:00pm 16.5 10.9 10.1 66 3.4 SW 30 41 16 22 1017.5 1017.5 0.0
30/11:30am 15.0 11.2 9.8 71 2.7 WSW 20 32 11 17 1017.3 1017.3 0.0
30/11:00am 15.4 10.7 9.3 67 3.1 SW 24 37 13 20 1017.3 1017.3 0.0
30/10:30am 14.6 11.3 9.4 71 2.7 WSW 17 26 9 14 1017.1 1017.1 0.0
30/10:00am 15.0 11.1 9.6 70 2.8 WSW 20 28 11 15 1016.8 1016.8 0.0
30/09:30am 13.7 10.1 9.7 77 2.1 W 19 28 10 15 1016.6 1016.6 0.0
30/09:00am 13.7 10.4 9.4 75 2.2 WSW 17 28 9 15 1016.4 1016.4 5.6
30/08:30am 12.8 9.4 9.3 79 1.8 W 17 30 9 16 1015.8 1015.8 5.6
30/08:00am 12.6 9.2 9.1 79 1.8 W 17 26 9 14 1015.5 1015.5 5.6
30/07:30am 12.5 9.9 9.3 81 1.6 WNW 13 17 7 9 1015.1 1015.1 5.6
30/07:00am 12.5 9.9 9.5 82 1.5 WNW 13 20 7 11 1014.7 1014.7 5.6
30/06:30am 12.3 10.3 10.2 87 1.1 WNW 11 15 6 8 1014.1 1014.1 5.6
30/06:00am 12.2 9.8 10.1 87 1.1 NW 13 19 7 10 1013.7 1013.7 5.6
30/05:30am 12.1 9.4 10.2 88 1.0 NW 15 20 8 11 1013.5 1013.5 5.6
30/05:00am 10.6 8.7 9.0 90 0.8 N 9 11 5 6 1013.1 1013.1 5.6
30/04:30am 11.2 8.7 9.6 90 0.8 NNW 13 17 7 9 1013.1 1013.1 5.6
30/04:00am 10.9 8.0 9.7 92 0.6 N 15 17 8 9 1013.1 1013.1 5.6
30/03:30am 10.9 8.0 9.7 92 0.6 NNW 15 20 8 11 1013.0 1013.0 5.6
30/03:00am 11.0 7.7 9.6 91 0.7 NNW 17 20 9 11 1013.0 1013.0 5.6
30/02:30am 11.2 8.7 9.6 90 0.8 NNW 13 19 7 10 1012.9 1012.9 5.6
30/02:00am 11.3 8.4 9.6 89 0.9 NNE 15 17 8 9 1012.5 1012.5 5.4
30/01:30am 11.3 9.9 9.0 86 1.1 WNW 6 9 3 5 1013.0 1013.0 5.2
30/01:00am 11.5 9.6 9.2 86 1.2 WNW 9 15 5 8 1013.0 1013.0 4.2
30/12:30am 11.7 9.2 9.6 87 1.1 W 13 19 7 10 1012.7 1012.7 3.6
30/12:00am 12.1 9.7 10.0 87 1.1 WSW 13 20 7 11 1012.7 1012.7 3.0
 
Date/Time
EDT
Temp
°C
App
Temp
°C
Dew
Point
°C
Rel
Hum
%
Delta-T
°C
Wind Press
QNH
hPa
Press
MSL
hPa
Rain since
9am
mm
Dir  Spd
km/h
Gust
km/h
Spd
kts
Gust
kts
29/11:30pm 12.2 9.8 9.9 86 1.2 W 13 20 7 11 1012.4 1012.4 2.0
29/11:00pm 12.8 9.6 9.8 82 1.5 WSW 17 26 9 14 1012.2 1012.2 1.0
29/10:48pm 13.0 9.9 10.4 84 1.3 WSW 17 26 9 14 1012.1 1012.1 1.0
29/10:30pm 12.9 9.2 10.3 84 1.3 WSW 20 32 11 17 1011.9 1011.9 1.0
29/10:06pm 12.9 9.4 10.3 84 1.3 SW 19 32 10 17 1011.8 1011.8 0.2
29/10:04pm 13.1 10.0 10.3 83 1.4 WSW 17 32 9 17 1011.9 1011.9 0.0
29/10:00pm 13.4 10.8 10.8 84 1.4 W 15 26 8 14 1011.8 1011.8 0.0
29/09:39pm 14.2 9.6 9.8 75 2.3 W 24 35 13 19 1011.4 1011.4 0.0
29/09:30pm 15.6 11.0 9.5 67 3.2 WSW 24 33 13 18 1011.2 1011.2 0.0
29/09:00pm 15.5 9.1 9.4 67 3.2 SW 33 50 18 27 1010.6 1010.6 0.0
29/08:40pm 15.4 9.5 10.6 73 2.5 SW 32 50 17 27 1010.3 1010.3 0.0
29/08:30pm 15.3 8.5 10.7 74 2.4 SW 37 50 20 27 1010.1 1010.1 0.0
29/08:00pm 15.8 9.3 11.6 76 2.3 SW 37 56 20 30 1009.1 1009.1 0.0
29/07:43pm 15.9 9.0 11.7 76 2.3 SW 39 59 21 32 1008.4 1008.4 0.0
29/07:41pm 16.0 9.6 12.0 77 2.2 SW 37 59 20 32 1008.4 1008.4 0.0
29/07:30pm 16.4 9.4 12.4 77 2.2 SW 41 56 22 30 1008.1 1008.1 0.0
29/07:14pm 16.6 9.2 12.6 77 2.2 SW 43 65 23 35 1007.4 1007.4 0.0
29/07:00pm 18.0 12.6 12.2 69 3.2 WSW 32 59 17 32 1006.7 1006.7 0.0
29/06:57pm 20.4 16.5 12.1 59 4.6 W 24 59 13 32 1006.6 1006.6 0.0
29/06:30pm 24.6 21.6 11.9 45 7.2 WNW 19 28 10 15 1005.0 1005.0 0.0
29/06:00pm 25.6 21.4 9.8 37 8.7 WNW 22 37 12 20 1004.3 1004.3 0.0
29/05:30pm 25.6 22.1 11.0 40 8.2 WNW 20 30 11 16 1004.2 1004.2 0.0
29/05:00pm 26.3 20.9 9.6 35 9.2 NW 28 39 15 21 1003.8 1003.8 0.0
29/04:30pm 26.6 21.1 9.0 33 9.6 NNW 28 41 15 22 1003.8 1003.8 0.0
29/04:07pm 26.6 21.2 9.5 34 9.4 NW 28 46 15 25 1003.8 1003.8 0.0
29/04:00pm 26.6 20.8 9.5 34 9.5 NNW 30 39 16 21 1003.8 1003.8 0.0
29/03:30pm 26.7 20.3 9.5 34 9.5 NNW 33 46 18 25 1004.0 1004.0 0.0
29/03:00pm 26.5 20.2 9.8 35 9.3 NNW 33 46 18 25 1004.3 1004.3 0.0
29/02:30pm 26.5 20.4 9.8 35 9.2 NNW 32 48 17 26 1004.6 1004.6 0.0
29/02:00pm 26.2 22.1 10.0 36 9.0 NNW 22 37 12 20 1005.4 1005.4 0.0
29/01:54pm 25.8 20.6 10.4 38 8.6 NNW 28 46 15 25 1005.5 1005.5 0.0
29/01:30pm 26.2 19.8 9.5 35 9.2 NNW 33 48 18 26 1005.9 1005.9 0.0
29/01:12pm 26.0 20.0 10.2 37 8.8 NNW 32 50 17 27 1006.2 1006.2 0.0
29/01:00pm 25.7 18.8 10.3 38 8.6 NNW 37 52 20 28 1006.2 1006.2 0.0
29/12:30pm 25.5 19.4 10.5 39 8.4 N 33 48 18 26 1006.6 1006.6 0.0
29/12:00pm 23.8 17.1 9.8 41 7.7 N 35 46 19 25 1007.1 1007.1 0.0
29/11:30am 23.8 17.8 10.1 42 7.5 NNW 32 46 17 25 1007.6 1007.6 0.0
29/11:00am 23.2 17.1 10.3 44 7.1 NNW 33 46 18 25 1008.0 1008.0 0.0
29/10:30am 22.2 16.9 10.0 46 6.6 NNW 28 39 15 21 1008.3 1008.3 0.0
29/10:00am 20.7 16.4 10.8 53 5.4 N 24 33 13 18 1008.6 1008.6 0.0
29/09:30am 19.3 16.3 10.8 58 4.6 N 17 22 9 12 1008.8 1008.8 0.0
29/09:00am 17.1 15.5 10.2 64 3.7 N 9 13 5 7 1008.9 1008.9 0.0
29/08:30am 15.8 14.4 9.7 67 3.2 WNW 7 11 4 6 1009.4 1009.4 0.0
29/08:00am 15.3 13.5 9.4 68 3.0 WNW 9 11 5 6 1009.2 1009.2 0.0
29/07:30am 15.3 13.6 9.7 69 2.9 W 9 13 5 7 1008.9 1008.9 0.0
29/07:00am 14.7 13.2 9.1 69 2.9 NNW 7 11 4 6 1008.8 1008.8 0.0
29/06:30am 15.3 12.0 9.4 68 3.0 N 17 20 9 11 1009.0 1009.0 0.0
29/06:00am 15.0 12.1 9.6 70 2.8 N 15 19 8 10 1009.1 1009.1 0.0
29/05:30am 15.1 13.2 9.0 67 3.1 N 9 11 5 6 1008.8 1008.8 0.0
29/05:00am 15.8 13.5 9.0 64 3.5 NNW 11 13 6 7 1009.0 1009.0 0.0
29/04:30am 16.0 13.3 9.0 63 3.6 NW 13 17 7 9 1009.1 1009.1 0.0
29/04:00am 15.3 12.9 8.8 65 3.3 WNW 11 15 6 8 1009.3 1009.3 0.0
29/03:30am 15.7 12.9 8.7 63 3.6 NNW 13 15 7 8 1009.6 1009.6 0.0
29/03:00am 16.3 13.5 8.5 60 4.0 NNW 13 17 7 9 1009.9 1009.9 0.0
29/02:30am 17.1 13.6 8.8 58 4.3 NNW 17 20 9 11 1010.0 1010.0 0.0
29/02:00am 16.8 14.2 9.2 61 3.9 NNW 13 19 7 10 1010.2 1010.2 0.0
29/01:30am 16.6 14.6 10.0 65 3.5 NNW 11 15 6 8 1010.4 1010.4 0.0
29/01:00am 14.4 15.0 11.9 85 1.3 CALM 0 0 0 0 1010.6 1010.6 0.0
29/12:30am 14.9 14.4 12.0 83 1.6 ENE 6 7 3 4 1010.6 1010.6 0.0
29/12:00am 14.9 14.4 11.9 82 1.6 ENE 6 7 3 4 1010.9 1010.9 0.0
 
Date/Time
EDT
Temp
°C
App
Temp
°C
Dew
Point
°C
Rel
Hum
%
Delta-T
°C
Wind Press
QNH
hPa
Press
MSL
hPa
Rain since
9am
mm
Dir  Spd
km/h
Gust
km/h
Spd
kts
Gust
kts
28/11:30pm 15.3 14.6 12.1 81 1.7 ENE 7 9 4 5 1011.2 1011.2 0.0
28/11:00pm 14.9 13.6 11.3 79 1.9 SE 9 11 5 6 1011.6 1011.6 0.0
28/10:30pm 15.7 14.6 11.9 78 2.1 SE 9 11 5 6 1012.1 1012.1 0.0
28/10:00pm 15.9 14.4 11.9 77 2.2 ESE 11 13 6 7 1011.9 1011.9 0.0
28/09:30pm 16.4 14.2 12.0 75 2.4 ESE 15 19 8 10 1011.9 1011.9 0.0
28/09:00pm 16.9 14.5 11.4 70 3.0 SE 15 20 8 11 1011.7 1011.7 0.0
28/08:30pm 18.2 16.7 10.6 61 4.1 ESE 9 11 5 6 1011.3 1011.3 0.0
28/08:00pm 18.7 18.3 11.0 61 4.2 SSE 4 7 2 4 1011.3 1011.3 0.0
28/07:30pm 19.8 19.0 11.0 57 4.8 SSE 6 7 3 4 1011.2 1011.2 0.0
28/07:00pm 21.2 19.7 10.7 51 5.8 SSW 9 11 5 6 1011.0 1011.0 0.0
28/06:30pm 22.5 21.5 10.3 46 6.7 S 6 7 3 4 1011.0 1011.0 0.0
28/06:00pm 22.8 22.4 9.6 43 7.2 E 2 7 1 4 1010.9 1010.9 0.0
28/05:30pm 22.9 22.6 10.0 44 7.0 SSW 2 9 1 5 1011.0 1011.0 0.0
28/05:00pm 22.4 20.8 10.2 46 6.7 S 9 13 5 7 1011.3 1011.3 0.0
28/04:30pm 22.2 21.2 10.4 47 6.5 SW 6 15 3 8 1011.5 1011.5 0.0
28/04:00pm 21.8 19.8 10.3 48 6.3 S 11 15 6 8 1011.7 1011.7 0.0
28/03:49pm 21.6 19.9 9.8 47 6.4 SW 9 15 5 8 1011.9 1011.9 0.0
28/03:37pm 22.1 20.5 10.3 47 6.4 WSW 9 15 5 8 1011.9 1011.9 0.0
28/03:30pm 22.3 20.5 10.8 48 6.3 SW 11 19 6 10 1012.0 1012.0 0.0
28/03:00pm 22.0 20.3 12.3 54 5.5 SW 13 17 7 9 1012.2 1012.2 0.0
28/02:30pm 21.1 18.8 10.6 51 5.7 SW 13 22 7 12 1012.5 1012.5 0.0
28/02:00pm 20.9 17.7 9.8 49 6.0 W 17 28 9 15 1012.9 1012.9 0.0
28/01:30pm 21.0 19.0 10.2 50 5.9 WNW 11 20 6 11 1013.2 1013.2 0.0
28/01:00pm 20.2 17.3 9.5 50 5.7 W 15 22 8 12 1013.6 1013.6 0.0
28/12:30pm 20.0 17.2 10.1 53 5.3 W 15 22 8 12 1014.1 1014.1 0.0
28/12:00pm 19.7 16.3 9.0 50 5.6 W 17 26 9 14 1014.5 1014.5 0.0
28/11:30am 19.3 16.0 9.5 53 5.2 W 17 26 9 14 1014.6 1014.6 0.0
28/11:00am 19.2 16.1 10.2 56 4.8 WNW 17 26 9 14 1014.9 1014.9 0.0
28/10:30am 18.3 15.3 10.7 61 4.1 NW 17 24 9 13 1015.0 1015.0 0.0
28/10:00am 17.2 14.2 10.8 66 3.4 NNW 17 24 9 13 1014.9 1014.9 0.0

Other Formats:

Comma delimited format used in spreadsheet applications
http://www.bom.gov.au/fwo/IDV60801/IDV60801.94870.axf

JavaScript Object Notation format (JSON) in row-major order
http://www.bom.gov.au/fwo/IDV60801/IDV60801.94870.json